createdAt,value
2022-11-16T00:02:18.744Z,29.80
2022-11-16T00:04:45.648Z,27.50
2022-11-16T00:07:12.645Z,29.30
2022-11-16T00:09:39.539Z,27.77
2022-11-16T00:12:08.769Z,27.03
2022-11-16T00:14:36.197Z,27.37
2022-11-16T00:17:03.938Z,28.60
2022-11-16T00:19:31.280Z,28.53
2022-11-16T00:21:58.313Z,28.20
2022-11-16T00:24:25.202Z,29.03
2022-11-16T00:26:54.653Z,28.43
2022-11-16T00:29:24.239Z,27.53
2022-11-16T00:31:51.818Z,27.33
2022-11-16T00:34:19.118Z,27.67
2022-11-16T00:36:46.891Z,26.47
2022-11-16T00:39:15.746Z,27.03
2022-11-16T00:41:43.637Z,27.07
2022-11-16T00:44:11.683Z,27.47
2022-11-16T00:46:38.868Z,26.30
2022-11-16T00:49:06.546Z,27.57
2022-11-16T00:51:34.702Z,27.70
2022-11-16T00:54:01.958Z,26.97
2022-11-16T00:56:29.847Z,26.50
2022-11-16T00:58:56.650Z,27.60
2022-11-16T01:01:23.676Z,26.03
2022-11-16T01:03:51.537Z,28.27
2022-11-16T01:06:20.358Z,27.17
2022-11-16T01:08:47.249Z,26.43
2022-11-16T01:11:36.565Z,27.10
2022-11-16T01:14:05.959Z,27.40
2022-11-16T01:16:33.032Z,27.50
2022-11-16T01:19:00.188Z,27.27
2022-11-16T01:21:27.522Z,26.53
2022-11-16T01:23:55.803Z,25.53
2022-11-16T01:26:23.206Z,27.53
2022-11-16T01:28:50.094Z,27.27
2022-11-16T01:31:17.124Z,28.50
2022-11-16T01:33:43.925Z,26.37
2022-11-16T01:36:19.527Z,26.03
2022-11-16T01:38:47.055Z,26.50
2022-11-16T01:41:22.828Z,26.53
2022-11-16T01:44:25.754Z,26.97
2022-11-16T01:46:55.571Z,26.63
2022-11-16T01:49:25.088Z,26.70
2022-11-16T01:52:17.350Z,27.03
2022-11-16T01:54:46.707Z,26.87
2022-11-16T01:57:18.986Z,26.97
2022-11-16T01:59:57.646Z,25.97
2022-11-16T02:02:26.914Z,25.77
2022-11-16T02:04:56.835Z,26.27
2022-11-16T02:08:00.615Z,26.87
2022-11-16T02:10:59.872Z,26.87
2022-11-16T02:13:56.745Z,26.17
2022-11-16T02:16:30.998Z,27.77
2022-11-16T02:19:36.994Z,26.23
2022-11-16T02:22:38.131Z,26.20
2022-11-16T02:25:26.405Z,25.90
2022-11-16T02:28:16.539Z,26.30
2022-11-16T02:30:48.965Z,26.37
2022-11-16T02:33:21.345Z,25.03
2022-11-16T02:35:52.580Z,24.53
2022-11-16T02:38:28.566Z,24.77
2022-11-16T02:41:10.170Z,26.47
2022-11-16T02:43:47.659Z,25.73
2022-11-16T02:46:23.425Z,25.77
2022-11-16T02:48:54.301Z,27.10
2022-11-16T02:51:22.730Z,25.90
2022-11-16T02:54:20.012Z,26.57
2022-11-16T02:57:03.169Z,27.07
2022-11-16T02:59:37.589Z,25.50
2022-11-16T03:02:35.941Z,26.70
2022-11-16T03:05:18.552Z,26.93
2022-11-16T03:08:06.726Z,26.63
2022-11-16T03:10:56.962Z,26.30
2022-11-16T03:13:28.158Z,27.13
2022-11-16T03:15:56.881Z,28.93
2022-11-16T03:18:28.980Z,28.83
2022-11-16T03:21:16.187Z,28.43
2022-11-16T03:23:45.314Z,28.90
2022-11-16T03:26:16.575Z,28.63
2022-11-16T03:29:08.545Z,28.63
2022-11-16T03:31:43.111Z,28.37
2022-11-16T03:34:18.917Z,30.03
2022-11-16T03:36:48.637Z,28.20
2022-11-16T03:39:27.004Z,28.47
2022-11-16T03:41:57.050Z,29.83
2022-11-16T03:44:24.018Z,28.73
2022-11-16T03:46:50.964Z,29.27
2022-11-16T03:49:22.302Z,30.47
2022-11-16T03:51:51.270Z,30.83
2022-11-16T03:54:18.815Z,30.30
2022-11-16T03:56:45.758Z,31.80
2022-11-16T03:59:12.787Z,29.67
2022-11-16T04:01:44.580Z,30.97
2022-11-16T04:04:33.165Z,32.53
2022-11-16T04:07:18.980Z,32.53
2022-11-16T04:10:04.422Z,31.27
2022-11-16T04:12:50.450Z,32.67
2022-11-16T04:15:35.811Z,33.93
2022-11-16T04:18:21.271Z,33.13
2022-11-16T04:21:06.682Z,33.10
2022-11-16T04:23:51.919Z,34.03
2022-11-16T04:26:18.923Z,34.00
2022-11-16T04:28:46.815Z,34.03
2022-11-16T04:31:32.843Z,33.43
2022-11-16T04:34:38.933Z,32.83
2022-11-16T04:37:24.770Z,32.80
2022-11-16T04:39:52.110Z,34.07
2022-11-16T04:42:22.306Z,33.13
2022-11-16T04:45:09.976Z,33.63
2022-11-16T04:47:45.411Z,33.17
2022-11-16T04:50:12.226Z,35.17
2022-11-16T04:52:40.448Z,33.67
2022-11-16T04:55:10.738Z,35.17
2022-11-16T04:57:38.563Z,35.87
2022-11-16T05:00:07.120Z,36.17
2022-11-16T05:02:35.852Z,35.77
2022-11-16T05:05:02.898Z,35.10
2022-11-16T05:07:30.310Z,34.03
2022-11-16T05:10:05.766Z,35.77
2022-11-16T05:12:33.701Z,34.80
2022-11-16T05:15:04.168Z,35.13
2022-11-16T05:17:33.070Z,35.60
2022-11-16T05:20:19.547Z,35.73
2022-11-16T05:22:57.606Z,34.93
2022-11-16T05:25:33.854Z,34.07
2022-11-16T05:28:04.960Z,35.43
2022-11-16T05:30:34.387Z,35.00
2022-11-16T05:33:03.265Z,34.07
2022-11-16T05:35:33.496Z,35.53
2022-11-16T05:38:01.106Z,34.27
2022-11-16T05:40:28.775Z,36.10
2022-11-16T05:42:58.503Z,34.63
2022-11-16T05:45:27.814Z,36.80
2022-11-16T05:47:56.003Z,35.00
2022-11-16T05:50:22.806Z,35.60
2022-11-16T05:53:02.442Z,36.10
2022-11-16T05:55:29.323Z,36.47
2022-11-16T05:57:56.246Z,36.13
2022-11-16T06:00:23.166Z,36.83
2022-11-16T06:02:52.633Z,34.77
2022-11-16T06:05:24.097Z,36.37
2022-11-16T06:07:51.447Z,34.90
2022-11-16T06:10:18.317Z,35.40
2022-11-16T06:12:48.476Z,35.10
2022-11-16T06:15:15.678Z,35.57
2022-11-16T06:17:42.597Z,35.87
2022-11-16T06:20:11.215Z,36.37
2022-11-16T06:22:38.608Z,33.87
2022-11-16T06:25:09.096Z,35.47
2022-11-16T06:27:42.418Z,36.57
2022-11-16T06:30:11.139Z,34.33
2022-11-16T06:32:39.990Z,35.43
2022-11-16T06:35:07.954Z,36.03
2022-11-16T06:37:35.151Z,35.67
2022-11-16T06:40:03.007Z,35.67
2022-11-16T06:42:33.616Z,35.60
2022-11-16T06:45:01.407Z,37.30
2022-11-16T06:47:34.552Z,36.90
2022-11-16T06:50:01.499Z,35.37
2022-11-16T06:52:28.417Z,37.33
2022-11-16T06:54:55.453Z,36.80
2022-11-16T06:57:23.244Z,36.23
2022-11-16T06:59:50.469Z,35.33
2022-11-16T07:02:17.858Z,36.33
2022-11-16T07:04:45.175Z,36.40
2022-11-16T07:07:12.003Z,36.53
2022-11-16T07:09:39.638Z,37.33
2022-11-16T07:12:06.682Z,35.77
2022-11-16T07:14:37.352Z,35.63
2022-11-16T07:17:09.522Z,36.30
2022-11-16T07:19:37.588Z,37.07
2022-11-16T07:22:05.942Z,37.40
2022-11-16T07:24:33.462Z,37.07
2022-11-16T07:27:00.728Z,37.57
2022-11-16T07:29:32.600Z,37.53
2022-11-16T07:32:20.836Z,37.37
2022-11-16T07:35:12.661Z,35.67
2022-11-16T07:37:40.047Z,35.57
2022-11-16T07:40:09.031Z,37.73
2022-11-16T07:42:37.224Z,36.57
2022-11-16T07:45:18.785Z,37.70
2022-11-16T07:47:53.468Z,37.63
2022-11-16T07:50:42.814Z,38.03
2022-11-16T07:53:10.055Z,37.17
2022-11-16T07:55:39.106Z,38.23
2022-11-16T07:58:06.216Z,36.60
2022-11-16T08:00:33.011Z,39.97
2022-11-16T08:03:08.546Z,38.63
2022-11-16T08:05:36.451Z,38.60
2022-11-16T08:08:03.284Z,38.40
2022-11-16T08:10:32.305Z,37.27
2022-11-16T08:12:59.502Z,38.13
2022-11-16T08:15:26.687Z,37.40
2022-11-16T08:17:53.729Z,38.93
2022-11-16T08:20:20.528Z,39.23
2022-11-16T08:22:49.758Z,36.70
2022-11-16T08:25:17.021Z,37.97
2022-11-16T08:27:44.050Z,38.17
2022-11-16T08:30:12.199Z,39.87
2022-11-16T08:32:41.206Z,38.10
2022-11-16T08:35:08.795Z,39.17
2022-11-16T08:37:35.630Z,37.60
2022-11-16T08:40:03.586Z,38.40
2022-11-16T08:42:33.003Z,37.90
2022-11-16T08:44:59.935Z,35.10
2022-11-16T08:47:26.792Z,36.33
2022-11-16T08:49:56.073Z,35.20
2022-11-16T08:52:25.128Z,33.40
2022-11-16T08:54:53.489Z,33.43
2022-11-16T08:57:20.904Z,34.70
2022-11-16T08:59:52.379Z,33.87
2022-11-16T09:02:25.265Z,31.03
2022-11-16T09:04:53.086Z,33.33
2022-11-16T09:07:21.006Z,32.10
2022-11-16T09:09:48.618Z,30.70
2022-11-16T09:12:15.546Z,31.67
2022-11-16T09:14:42.383Z,31.43
2022-11-16T09:17:09.226Z,31.30
2022-11-16T09:19:35.993Z,31.77
2022-11-16T09:22:02.746Z,31.63
2022-11-16T09:24:29.494Z,30.97
2022-11-16T09:27:00.864Z,30.27
2022-11-16T09:29:28.277Z,30.03
2022-11-16T09:31:55.917Z,29.97
2022-11-16T09:34:22.784Z,28.87
2022-11-16T09:36:49.567Z,30.17
2022-11-16T09:39:30.631Z,29.93
2022-11-16T09:42:06.600Z,29.83
2022-11-16T09:44:52.042Z,28.43
2022-11-16T09:47:21.897Z,29.13
2022-11-16T09:49:58.159Z,27.90
2022-11-16T09:52:40.735Z,29.90
2022-11-16T09:55:31.421Z,28.20
2022-11-16T09:58:02.023Z,26.97
2022-11-16T10:00:31.108Z,26.43
2022-11-16T10:03:05.681Z,24.47
2022-11-16T10:06:05.774Z,23.17
2022-11-16T10:08:35.789Z,21.00
2022-11-16T10:11:24.053Z,21.50
2022-11-16T10:14:05.205Z,19.87
2022-11-16T10:16:56.965Z,17.93
2022-11-16T10:19:57.001Z,17.43
2022-11-16T10:22:36.197Z,16.90
2022-11-16T10:25:21.740Z,17.30
2022-11-16T10:28:00.464Z,17.53
2022-11-16T10:30:27.730Z,17.43
2022-11-16T10:32:54.567Z,17.03
2022-11-16T10:35:24.401Z,15.20
2022-11-16T10:37:52.205Z,15.30
2022-11-16T10:40:44.306Z,15.43
2022-11-16T10:43:23.917Z,15.43
2022-11-16T10:46:15.493Z,15.47
2022-11-16T10:48:58.535Z,15.90
2022-11-16T10:51:25.366Z,16.33
2022-11-16T10:53:53.204Z,17.13
2022-11-16T10:56:37.241Z,16.70
2022-11-16T10:59:09.215Z,17.17
2022-11-16T11:01:37.874Z,17.73
2022-11-16T11:04:23.559Z,19.23
2022-11-16T11:07:01.627Z,20.40
2022-11-16T11:09:36.106Z,19.73
2022-11-16T11:12:36.137Z,21.90
2022-11-16T11:15:02.923Z,21.50
2022-11-16T11:17:31.884Z,21.23
2022-11-16T11:20:14.903Z,22.57
2022-11-16T11:23:03.868Z,22.10
2022-11-16T11:25:37.170Z,23.10
2022-11-16T11:28:26.224Z,23.03
2022-11-16T11:30:57.814Z,22.00
2022-11-16T11:33:28.780Z,21.27
2022-11-16T11:36:06.507Z,20.67
2022-11-16T11:38:35.519Z,20.87
2022-11-16T11:41:05.236Z,23.00
2022-11-16T11:43:34.589Z,21.47
2022-11-16T11:46:11.928Z,20.23
2022-11-16T11:48:51.504Z,20.57
2022-11-16T11:51:27.468Z,19.17
2022-11-16T11:53:56.802Z,19.30
2022-11-16T11:56:24.840Z,18.37
2022-11-16T11:58:52.443Z,18.93
2022-11-16T12:01:37.786Z,19.10
2022-11-16T12:04:22.084Z,18.87
2022-11-16T12:07:14.918Z,18.90
2022-11-16T12:10:10.396Z,17.13
2022-11-16T12:12:42.978Z,18.87
2022-11-16T12:15:31.158Z,17.40
2022-11-16T12:18:03.800Z,18.83
2022-11-16T12:20:45.564Z,17.83
2022-11-16T12:23:26.806Z,18.33
2022-11-16T12:26:18.438Z,19.30
2022-11-16T12:29:13.044Z,18.07
2022-11-16T12:31:42.821Z,18.77
2022-11-16T12:34:35.356Z,18.03
2022-11-16T12:37:11.439Z,18.90
2022-11-16T12:39:53.416Z,17.90
2022-11-16T12:42:38.758Z,17.57
2022-11-16T12:45:40.179Z,18.17
2022-11-16T12:48:21.995Z,17.80
2022-11-16T12:51:03.115Z,18.17
2022-11-16T12:54:09.494Z,18.60
2022-11-16T12:56:59.715Z,18.00
2022-11-16T12:59:49.143Z,18.10
2022-11-16T13:02:46.537Z,19.00
2022-11-16T13:05:31.589Z,19.20
2022-11-16T13:08:05.003Z,19.03
2022-11-16T13:10:42.772Z,19.10
2022-11-16T13:13:40.875Z,20.00
2022-11-16T13:16:09.966Z,18.90
2022-11-16T13:18:41.378Z,19.40
2022-11-16T13:21:19.976Z,20.43
2022-11-16T13:23:55.596Z,20.67
2022-11-16T13:26:44.750Z,20.13
2022-11-16T13:29:34.089Z,20.03
2022-11-16T13:32:24.527Z,19.43
2022-11-16T13:34:52.411Z,19.43
2022-11-16T13:37:34.262Z,18.73
2022-11-16T13:40:01.217Z,18.47
2022-11-16T13:42:30.120Z,18.80
2022-11-16T13:45:21.342Z,17.80
2022-11-16T13:47:56.700Z,17.97
2022-11-16T13:50:35.963Z,18.07
2022-11-16T13:56:06.948Z,17.83
2022-11-16T13:58:37.170Z,17.27
2022-11-16T14:01:08.928Z,16.33
2022-11-16T14:03:40.809Z,17.17
2022-11-16T14:06:27.955Z,16.93
2022-11-16T14:08:55.685Z,17.67
2022-11-16T14:11:38.737Z,16.27
2022-11-16T14:14:43.401Z,16.33
2022-11-16T14:17:10.230Z,16.03
2022-11-16T14:19:49.229Z,15.50
2022-11-16T14:22:22.293Z,14.67
2022-11-16T14:24:58.383Z,14.17
2022-11-16T14:27:45.855Z,14.87
2022-11-16T14:30:23.211Z,14.53
2022-11-16T14:32:52.659Z,14.67
2022-11-16T14:35:38.891Z,13.93
2022-11-16T14:38:31.532Z,13.73
2022-11-16T14:41:02.036Z,13.63
2022-11-16T14:43:38.611Z,13.10
2022-11-16T14:46:09.312Z,13.10
2022-11-16T14:48:45.038Z,13.27
2022-11-16T14:51:22.659Z,13.73
2022-11-16T14:54:00.569Z,13.17
2022-11-16T14:56:27.896Z,13.53
2022-11-16T14:58:59.498Z,12.47
2022-11-16T15:01:36.695Z,12.33
2022-11-16T15:04:06.992Z,13.03
2022-11-16T15:07:04.061Z,12.73
2022-11-16T15:09:37.006Z,11.63
2022-11-16T15:12:26.886Z,11.90
2022-11-16T15:14:57.058Z,11.73
2022-11-16T15:17:31.884Z,12.27
2022-11-16T15:20:14.934Z,12.43
2022-11-16T15:22:44.723Z,12.20
2022-11-16T15:25:33.305Z,12.67
2022-11-16T15:28:03.022Z,12.57
2022-11-16T15:30:34.106Z,12.37
2022-11-16T15:33:10.479Z,12.40
2022-11-16T15:35:38.533Z,13.07
2022-11-16T15:38:05.445Z,13.27
2022-11-16T15:40:33.951Z,13.20
2022-11-16T15:43:03.834Z,14.10
2022-11-16T15:45:32.597Z,14.13
2022-11-16T15:48:02.023Z,14.90
2022-11-16T15:50:29.176Z,15.57
2022-11-16T15:52:57.019Z,15.53
2022-11-16T15:55:31.925Z,15.40
2022-11-16T15:58:25.506Z,15.50
2022-11-16T16:00:54.393Z,15.73
2022-11-16T16:03:26.637Z,16.10
2022-11-16T16:05:54.782Z,15.50
2022-11-16T16:08:30.418Z,15.33
2022-11-16T16:11:27.655Z,15.20
2022-11-16T16:14:02.728Z,14.53
2022-11-16T16:16:29.668Z,14.83
2022-11-16T16:19:03.667Z,14.90
2022-11-16T16:21:44.884Z,14.33
2022-11-16T16:24:38.235Z,14.63
2022-11-16T16:27:12.180Z,14.00
2022-11-16T16:29:39.633Z,14.33
2022-11-16T16:32:09.228Z,14.03
2022-11-16T16:34:39.344Z,13.77
2022-11-16T16:37:11.794Z,12.73
2022-11-16T16:39:39.839Z,14.07
2022-11-16T16:42:13.119Z,13.63
2022-11-16T16:44:41.007Z,13.80
2022-11-16T16:47:08.435Z,14.37
2022-11-16T16:49:35.474Z,14.17
2022-11-16T16:52:02.590Z,14.53
2022-11-16T16:54:29.408Z,14.53
2022-11-16T16:56:57.353Z,13.87
2022-11-16T16:59:24.893Z,14.10
2022-11-16T17:01:51.836Z,13.13
2022-11-16T17:04:19.423Z,13.63
2022-11-16T17:06:47.970Z,13.53
2022-11-16T17:09:14.757Z,13.77
2022-11-16T17:11:41.549Z,13.67
2022-11-16T17:14:08.458Z,13.63
2022-11-16T17:16:35.897Z,13.60
2022-11-16T17:19:04.024Z,14.17
2022-11-16T17:21:31.800Z,14.60
2022-11-16T17:23:58.612Z,13.50
2022-11-16T17:26:29.212Z,14.00
2022-11-16T17:28:57.144Z,14.97
2022-11-16T17:31:25.356Z,14.10
2022-11-16T17:33:52.380Z,14.37
2022-11-16T17:36:19.222Z,14.20
2022-11-16T17:38:46.255Z,13.30
2022-11-16T17:41:18.586Z,14.23
2022-11-16T17:43:46.736Z,13.37
2022-11-16T17:46:16.077Z,13.97
2022-11-16T17:48:44.629Z,14.10
2022-11-16T17:51:12.858Z,13.50
2022-11-16T17:53:40.709Z,13.23
2022-11-16T17:56:08.238Z,12.90
2022-11-16T17:58:35.241Z,12.00
2022-11-16T18:01:02.044Z,12.00
2022-11-16T18:03:28.955Z,12.30
2022-11-16T18:06:05.866Z,11.73
2022-11-16T18:08:34.351Z,12.23
2022-11-16T18:11:09.658Z,11.90
2022-11-16T18:13:37.360Z,11.83
2022-11-16T18:16:11.449Z,11.83
2022-11-16T18:18:38.908Z,12.37
2022-11-16T18:21:07.259Z,11.00
2022-11-16T18:23:35.841Z,10.80
2022-11-16T18:26:08.474Z,10.33
2022-11-16T18:28:36.122Z,10.87
2022-11-16T18:31:06.789Z,10.87
2022-11-16T18:33:35.706Z,10.90
2022-11-16T18:36:03.652Z,10.30
2022-11-16T18:38:30.607Z,10.70
2022-11-16T18:41:04.319Z,10.50
2022-11-16T18:43:31.678Z,11.20
2022-11-16T18:45:58.655Z,10.57
2022-11-16T18:48:25.432Z,10.03
2022-11-16T18:50:52.225Z,10.47
2022-11-16T18:53:18.999Z,9.67
2022-11-16T18:55:57.495Z,9.90
2022-11-16T18:58:49.366Z,9.93
2022-11-16T19:01:15.026Z,10.07
2022-11-16T19:03:42.173Z,9.40
2022-11-16T19:06:10.358Z,9.97
2022-11-16T19:08:38.820Z,10.03
2022-11-16T19:11:15.982Z,9.70
2022-11-16T19:13:44.035Z,8.57
2022-11-16T19:16:12.597Z,9.07
2022-11-16T19:18:39.786Z,8.67
2022-11-16T19:21:10.031Z,8.83
2022-11-16T19:23:38.809Z,9.67
2022-11-16T19:26:06.406Z,9.90
2022-11-16T19:28:37.854Z,9.03
2022-11-16T19:31:09.464Z,9.03
2022-11-16T19:33:36.919Z,9.60
2022-11-16T19:36:12.457Z,10.43
2022-11-16T19:38:39.593Z,9.30
2022-11-16T19:41:08.230Z,8.60
2022-11-16T19:43:35.414Z,9.97
2022-11-16T19:46:07.336Z,10.40
2022-11-16T19:48:34.865Z,9.00
2022-11-16T19:51:09.851Z,9.43
2022-11-16T19:53:37.998Z,8.80
2022-11-16T19:56:05.843Z,9.20
2022-11-16T19:58:36.869Z,9.70
2022-11-16T20:01:06.274Z,9.40
2022-11-16T20:03:34.373Z,9.23
2022-11-16T20:06:05.886Z,9.00
2022-11-16T20:08:32.763Z,8.50
2022-11-16T20:10:59.514Z,9.13
2022-11-16T20:13:26.280Z,8.77
2022-11-16T20:15:53.097Z,9.47
2022-11-16T20:18:20.121Z,9.07
2022-11-16T20:20:46.901Z,8.60
2022-11-16T20:23:15.629Z,8.90
2022-11-16T20:25:42.468Z,8.77
2022-11-16T20:28:09.582Z,9.80
2022-11-16T20:30:36.353Z,9.27
2022-11-16T20:33:03.144Z,9.57
2022-11-16T20:35:29.957Z,8.97
2022-11-16T20:37:56.807Z,8.63
2022-11-16T20:40:24.594Z,8.70
2022-11-16T20:42:51.433Z,8.53
2022-11-16T20:45:18.215Z,9.00
2022-11-16T20:47:44.995Z,7.50
2022-11-16T20:50:11.979Z,7.57
2022-11-16T20:52:43.069Z,8.23
2022-11-16T20:55:11.595Z,8.53
2022-11-16T20:57:38.349Z,8.67
2022-11-16T21:00:05.733Z,8.83
2022-11-16T21:02:32.486Z,9.27
2022-11-16T21:05:00.602Z,10.10
2022-11-16T21:07:28.230Z,8.77
2022-11-16T21:10:13.466Z,8.57
2022-11-16T21:12:59.157Z,7.97
2022-11-16T21:15:25.936Z,8.50
2022-11-16T21:17:53.031Z,8.30
2022-11-16T21:20:27.407Z,8.57
2022-11-16T21:22:54.530Z,7.83
2022-11-16T21:25:21.468Z,8.13
2022-11-16T21:27:48.315Z,7.80
2022-11-16T21:30:15.302Z,8.00
2022-11-16T21:32:42.147Z,8.00
2022-11-16T21:35:09.134Z,8.27
2022-11-16T21:37:35.890Z,8.03
2022-11-16T21:40:02.737Z,7.57
2022-11-16T21:42:29.737Z,7.97
2022-11-16T21:44:56.518Z,8.20
2022-11-16T21:47:23.394Z,7.90
2022-11-16T21:50:16.809Z,7.47
2022-11-16T21:52:37.238Z,7.43
2022-11-16T21:55:04.363Z,6.83
2022-11-16T21:57:31.128Z,6.20
2022-11-16T21:59:57.940Z,6.50
2022-11-16T22:02:24.768Z,6.67
2022-11-16T22:05:10.257Z,7.07
2022-11-16T22:07:37.164Z,6.40
2022-11-16T22:10:05.885Z,6.30
2022-11-16T22:12:32.922Z,6.27
2022-11-16T22:14:59.783Z,6.70
2022-11-16T22:17:27.139Z,7.23
2022-11-16T22:19:53.927Z,7.03
2022-11-16T22:22:21.552Z,6.77
2022-11-16T22:24:48.529Z,6.83
2022-11-16T22:27:16.205Z,7.20
2022-11-16T22:29:43.065Z,6.70
2022-11-16T22:32:10.506Z,6.77
2022-11-16T22:34:37.609Z,7.37
2022-11-16T22:37:04.396Z,7.90
2022-11-16T22:39:31.453Z,7.13
2022-11-16T22:41:58.275Z,7.00
2022-11-16T22:44:25.067Z,6.93
2022-11-16T22:46:52.685Z,6.90
2022-11-16T22:49:19.669Z,7.30
2022-11-16T22:51:46.735Z,7.20
2022-11-16T22:54:15.597Z,7.70
2022-11-16T22:56:42.909Z,7.03
2022-11-16T22:59:10.004Z,7.30
2022-11-16T23:01:37.463Z,7.07
2022-11-16T23:04:04.938Z,7.53
2022-11-16T23:06:32.161Z,6.97
2022-11-16T23:08:59.212Z,6.63
2022-11-16T23:11:44.983Z,6.90
2022-11-16T23:14:32.993Z,6.87
2022-11-16T23:17:00.762Z,7.13
2022-11-16T23:19:46.972Z,7.53
2022-11-16T23:22:35.379Z,7.47
2022-11-16T23:25:21.761Z,7.27
2022-11-16T23:28:15.336Z,7.50
2022-11-16T23:30:43.526Z,7.23
2022-11-16T23:33:10.657Z,7.07
2022-11-16T23:35:37.735Z,7.90
2022-11-16T23:38:08.192Z,7.80
2022-11-16T23:40:37.076Z,8.07
2022-11-16T23:43:23.741Z,9.07
2022-11-16T23:45:50.990Z,8.40
2022-11-16T23:48:18.802Z,8.73
2022-11-16T23:50:46.163Z,8.57
2022-11-16T23:53:13.876Z,8.30
2022-11-16T23:55:40.971Z,8.20
2022-11-16T23:58:13.244Z,8.17
